sensor_id;sensor_type;location;lat;lon;timestamp;temperature;humidity
18160;DHT22;9205;52.032;4.314;2023-02-14T00:00:56;6.20;1.00
18160;DHT22;9205;52.032;4.314;2023-02-14T00:03:28;6.00;1.00
18160;DHT22;9205;52.032;4.314;2023-02-14T00:06:06;6.10;1.00
18160;DHT22;9205;52.032;4.314;2023-02-14T00:08:42;6.10;1.00
18160;DHT22;9205;52.032;4.314;2023-02-14T00:11:18;5.90;1.00
18160;DHT22;9205;52.032;4.314;2023-02-14T00:13:52;5.80;1.00
18160;DHT22;9205;52.032;4.314;2023-02-14T00:16:40;6.00;1.00
18160;DHT22;9205;52.032;4.314;2023-02-14T00:19:11;6.00;1.00
18160;DHT22;9205;52.032;4.314;2023-02-14T00:21:47;6.00;1.00
18160;DHT22;9205;52.032;4.314;2023-02-14T00:24:21;5.80;1.00
18160;DHT22;9205;52.032;4.314;2023-02-14T00:26:56;5.80;1.00
18160;DHT22;9205;52.032;4.314;2023-02-14T00:29:30;5.70;1.00
18160;DHT22;9205;52.032;4.314;2023-02-14T00:32:03;5.90;1.00
18160;DHT22;9205;52.032;4.314;2023-02-14T00:34:36;5.70;1.00
18160;DHT22;9205;52.032;4.314;2023-02-14T00:37:11;5.80;8.40
18160;DHT22;9205;52.032;4.314;2023-02-14T00:39:48;5.90;15.30
18160;DHT22;9205;52.032;4.314;2023-02-14T00:42:20;5.90;29.70
18160;DHT22;9205;52.032;4.314;2023-02-14T00:44:52;5.70;25.30
18160;DHT22;9205;52.032;4.314;2023-02-14T00:47:29;5.80;19.50
18160;DHT22;9205;52.032;4.314;2023-02-14T00:49:59;5.80;14.70
18160;DHT22;9205;52.032;4.314;2023-02-14T00:52:31;5.80;17.00
18160;DHT22;9205;52.032;4.314;2023-02-14T00:55:05;5.50;18.50
18160;DHT22;9205;52.032;4.314;2023-02-14T00:57:37;5.70;26.00
18160;DHT22;9205;52.032;4.314;2023-02-14T01:00:10;5.80;28.40
18160;DHT22;9205;52.032;4.314;2023-02-14T01:02:49;5.80;29.20
18160;DHT22;9205;52.032;4.314;2023-02-14T01:05:22;5.50;32.80
18160;DHT22;9205;52.032;4.314;2023-02-14T01:07:55;5.70;32.50
18160;DHT22;9205;52.032;4.314;2023-02-14T01:10:32;5.70;34.30
18160;DHT22;9205;52.032;4.314;2023-02-14T01:13:06;5.40;33.50
18160;DHT22;9205;52.032;4.314;2023-02-14T01:15:39;5.40;37.60
18160;DHT22;9205;52.032;4.314;2023-02-14T01:18:19;5.40;44.80
18160;DHT22;9205;52.032;4.314;2023-02-14T01:20:51;5.50;51.40
18160;DHT22;9205;52.032;4.314;2023-02-14T01:23:21;5.30;59.00
18160;DHT22;9205;52.032;4.314;2023-02-14T01:25:54;5.40;56.10
18160;DHT22;9205;52.032;4.314;2023-02-14T01:28:27;5.50;54.40
18160;DHT22;9205;52.032;4.314;2023-02-14T01:31:07;5.50;53.70
18160;DHT22;9205;52.032;4.314;2023-02-14T01:33:39;5.30;57.90
18160;DHT22;9205;52.032;4.314;2023-02-14T01:36:20;5.40;62.50
18160;DHT22;9205;52.032;4.314;2023-02-14T01:38:54;5.20;66.70
18160;DHT22;9205;52.032;4.314;2023-02-14T01:41:31;5.50;67.10
18160;DHT22;9205;52.032;4.314;2023-02-14T01:44:05;5.40;74.60
18160;DHT22;9205;52.032;4.314;2023-02-14T01:46:59;5.40;96.10
18160;DHT22;9205;52.032;4.314;2023-02-14T01:49:34;5.40;90.10
18160;DHT22;9205;52.032;4.314;2023-02-14T01:52:08;5.10;99.90
18160;DHT22;9205;52.032;4.314;2023-02-14T01:54:51;5.40;92.90
18160;DHT22;9205;52.032;4.314;2023-02-14T01:57:29;5.30;89.60
18160;DHT22;9205;52.032;4.314;2023-02-14T02:00:07;5.20;95.50
18160;DHT22;9205;52.032;4.314;2023-02-14T02:02:58;5.00;86.00
18160;DHT22;9205;52.032;4.314;2023-02-14T02:05:33;5.10;86.70
18160;DHT22;9205;52.032;4.314;2023-02-14T02:08:07;5.20;99.90
18160;DHT22;9205;52.032;4.314;2023-02-14T02:10:39;5.10;96.10
18160;DHT22;9205;52.032;4.314;2023-02-14T02:13:23;5.20;97.60
18160;DHT22;9205;52.032;4.314;2023-02-14T02:16:06;5.00;99.90
18160;DHT22;9205;52.032;4.314;2023-02-14T02:19:00;5.10;99.90
18160;DHT22;9205;52.032;4.314;2023-02-14T02:22:04;5.00;99.90
18160;DHT22;9205;52.032;4.314;2023-02-14T02:24:55;4.90;99.90
18160;DHT22;9205;52.032;4.314;2023-02-14T02:28:05;4.90;99.90
18160;DHT22;9205;52.032;4.314;2023-02-14T02:34:23;5.10;99.90
18160;DHT22;9205;52.032;4.314;2023-02-14T02:37:33;4.90;99.90
18160;DHT22;9205;52.032;4.314;2023-02-14T02:40:21;5.20;99.90
18160;DHT22;9205;52.032;4.314;2023-02-14T02:43:05;4.90;99.90
18160;DHT22;9205;52.032;4.314;2023-02-14T02:45:57;4.90;99.90
18160;DHT22;9205;52.032;4.314;2023-02-14T02:48:55;4.80;99.90
18160;DHT22;9205;52.032;4.314;2023-02-14T02:51:38;5.00;99.90
18160;DHT22;9205;52.032;4.314;2023-02-14T02:54:36;4.80;99.90
18160;DHT22;9205;52.032;4.314;2023-02-14T02:57:17;4.70;99.90
18160;DHT22;9205;52.032;4.314;2023-02-14T02:59:55;5.00;99.90
18160;DHT22;9205;52.032;4.314;2023-02-14T03:02:31;5.00;99.90
18160;DHT22;9205;52.032;4.314;2023-02-14T03:05:27;5.00;99.90
18160;DHT22;9205;52.032;4.314;2023-02-14T03:07:59;4.60;99.90
18160;DHT22;9205;52.032;4.314;2023-02-14T03:10:37;4.60;99.90
18160;DHT22;9205;52.032;4.314;2023-02-14T03:16:34;4.90;99.90
18160;DHT22;9205;52.032;4.314;2023-02-14T03:19:33;4.60;99.90
18160;DHT22;9205;52.032;4.314;2023-02-14T03:22:39;4.80;99.90
18160;DHT22;9205;52.032;4.314;2023-02-14T03:25:30;4.80;99.90
18160;DHT22;9205;52.032;4.314;2023-02-14T03:28:19;4.50;99.90
18160;DHT22;9205;52.032;4.314;2023-02-14T03:31:00;4.50;99.90
18160;DHT22;9205;52.032;4.314;2023-02-14T03:33:40;4.70;99.90
18160;DHT22;9205;52.032;4.314;2023-02-14T03:36:19;4.70;99.90
18160;DHT22;9205;52.032;4.314;2023-02-14T03:38:56;4.70;99.90
18160;DHT22;9205;52.032;4.314;2023-02-14T03:41:40;4.40;99.90
18160;DHT22;9205;52.032;4.314;2023-02-14T03:44:18;4.40;99.90
18160;DHT22;9205;52.032;4.314;2023-02-14T03:46:53;4.70;99.90
18160;DHT22;9205;52.032;4.314;2023-02-14T03:49:31;4.40;99.90
18160;DHT22;9205;52.032;4.314;2023-02-14T03:52:05;4.40;99.90
18160;DHT22;9205;52.032;4.314;2023-02-14T03:54:39;4.60;99.90
18160;DHT22;9205;52.032;4.314;2023-02-14T03:57:18;4.40;99.90
18160;DHT22;9205;52.032;4.314;2023-02-14T03:59:55;4.60;99.90
18160;DHT22;9205;52.032;4.314;2023-02-14T04:02:32;4.50;99.90
18160;DHT22;9205;52.032;4.314;2023-02-14T04:05:12;4.70;99.90
18160;DHT22;9205;52.032;4.314;2023-02-14T04:07:50;4.70;99.90
18160;DHT22;9205;52.032;4.314;2023-02-14T04:10:22;4.60;99.90
18160;DHT22;9205;52.032;4.314;2023-02-14T04:12:56;4.60;99.90
18160;DHT22;9205;52.032;4.314;2023-02-14T04:15:27;4.40;99.90
18160;DHT22;9205;52.032;4.314;2023-02-14T04:17:58;4.50;99.90
18160;DHT22;9205;52.032;4.314;2023-02-14T04:20:48;4.40;99.90
18160;DHT22;9205;52.032;4.314;2023-02-14T04:23:19;4.70;99.90
18160;DHT22;9205;52.032;4.314;2023-02-14T04:25:50;4.70;99.90
18160;DHT22;9205;52.032;4.314;2023-02-14T04:28:21;4.40;99.90
18160;DHT22;9205;52.032;4.314;2023-02-14T04:30:52;4.70;99.90
18160;DHT22;9205;52.032;4.314;2023-02-14T04:33:23;4.80;99.90
18160;DHT22;9205;52.032;4.314;2023-02-14T04:35:57;4.60;99.90
18160;DHT22;9205;52.032;4.314;2023-02-14T04:38:32;4.50;99.90
18160;DHT22;9205;52.032;4.314;2023-02-14T04:41:02;4.90;99.90
18160;DHT22;9205;52.032;4.314;2023-02-14T04:43:35;4.50;99.90
18160;DHT22;9205;52.032;4.314;2023-02-14T04:46:05;4.80;99.90
18160;DHT22;9205;52.032;4.314;2023-02-14T04:48:33;4.50;99.90
18160;DHT22;9205;52.032;4.314;2023-02-14T04:51:05;4.70;99.90
18160;DHT22;9205;52.032;4.314;2023-02-14T04:53:38;4.50;99.90
18160;DHT22;9205;52.032;4.314;2023-02-14T04:56:12;4.70;99.90
18160;DHT22;9205;52.032;4.314;2023-02-14T04:58:47;4.70;99.90
18160;DHT22;9205;52.032;4.314;2023-02-14T05:01:20;4.70;99.90
18160;DHT22;9205;52.032;4.314;2023-02-14T05:03:52;4.30;99.90
18160;DHT22;9205;52.032;4.314;2023-02-14T05:06:23;4.30;99.90
18160;DHT22;9205;52.032;4.314;2023-02-14T05:08:57;4.30;99.90
18160;DHT22;9205;52.032;4.314;2023-02-14T05:11:28;4.20;99.90
18160;DHT22;9205;52.032;4.314;2023-02-14T05:13:59;4.60;99.90
18160;DHT22;9205;52.032;4.314;2023-02-14T05:16:30;4.30;99.90
18160;DHT22;9205;52.032;4.314;2023-02-14T05:19:01;4.40;99.90
18160;DHT22;9205;52.032;4.314;2023-02-14T05:21:32;4.20;99.90
18160;DHT22;9205;52.032;4.314;2023-02-14T05:24:03;4.50;99.90
18160;DHT22;9205;52.032;4.314;2023-02-14T05:26:35;4.40;99.90
18160;DHT22;9205;52.032;4.314;2023-02-14T05:29:10;4.50;99.90
18160;DHT22;9205;52.032;4.314;2023-02-14T05:31:41;4.20;99.90
18160;DHT22;9205;52.032;4.314;2023-02-14T05:34:11;4.50;99.90
18160;DHT22;9205;52.032;4.314;2023-02-14T05:36:48;4.40;99.90
18160;DHT22;9205;52.032;4.314;2023-02-14T05:39:21;4.30;99.90
18160;DHT22;9205;52.032;4.314;2023-02-14T05:41:53;4.30;99.90
18160;DHT22;9205;52.032;4.314;2023-02-14T05:44:34;4.50;99.90
18160;DHT22;9205;52.032;4.314;2023-02-14T05:47:06;4.20;99.90
18160;DHT22;9205;52.032;4.314;2023-02-14T05:49:39;4.50;99.90
18160;DHT22;9205;52.032;4.314;2023-02-14T05:52:09;4.50;99.90
18160;DHT22;9205;52.032;4.314;2023-02-14T05:54:49;4.60;99.90
18160;DHT22;9205;52.032;4.314;2023-02-14T05:57:21;4.20;99.90
18160;DHT22;9205;52.032;4.314;2023-02-14T05:59:55;4.40;99.90
18160;DHT22;9205;52.032;4.314;2023-02-14T06:02:26;4.50;99.90
18160;DHT22;9205;52.032;4.314;2023-02-14T06:04:59;4.20;99.90
18160;DHT22;9205;52.032;4.314;2023-02-14T06:07:32;4.50;99.90
18160;DHT22;9205;52.032;4.314;2023-02-14T06:10:04;4.30;99.90
18160;DHT22;9205;52.032;4.314;2023-02-14T06:12:37;4.30;99.90
18160;DHT22;9205;52.032;4.314;2023-02-14T06:15:11;4.30;99.90
18160;DHT22;9205;52.032;4.314;2023-02-14T06:17:51;4.50;99.90
18160;DHT22;9205;52.032;4.314;2023-02-14T06:20:24;4.60;99.90
18160;DHT22;9205;52.032;4.314;2023-02-14T06:22:55;4.60;99.90
18160;DHT22;9205;52.032;4.314;2023-02-14T06:25:26;4.50;99.90
18160;DHT22;9205;52.032;4.314;2023-02-14T06:28:01;4.20;99.90
18160;DHT22;9205;52.032;4.314;2023-02-14T06:30:49;4.20;99.90
18160;DHT22;9205;52.032;4.314;2023-02-14T06:33:20;4.40;99.90
18160;DHT22;9205;52.032;4.314;2023-02-14T06:35:52;4.20;99.90
18160;DHT22;9205;52.032;4.314;2023-02-14T06:38:24;4.40;99.90
18160;DHT22;9205;52.032;4.314;2023-02-14T06:41:02;4.60;99.90
18160;DHT22;9205;52.032;4.314;2023-02-14T06:43:33;4.50;99.90
18160;DHT22;9205;52.032;4.314;2023-02-14T06:46:06;4.10;99.90
18160;DHT22;9205;52.032;4.314;2023-02-14T06:48:36;4.20;99.90
18160;DHT22;9205;52.032;4.314;2023-02-14T06:51:07;4.50;99.90
18160;DHT22;9205;52.032;4.314;2023-02-14T06:53:37;4.60;99.90
18160;DHT22;9205;52.032;4.314;2023-02-14T06:56:07;4.50;99.90
18160;DHT22;9205;52.032;4.314;2023-02-14T06:58:37;4.60;99.90
18160;DHT22;9205;52.032;4.314;2023-02-14T07:01:09;4.50;99.90
18160;DHT22;9205;52.032;4.314;2023-02-14T07:03:38;4.30;99.90
18160;DHT22;9205;52.032;4.314;2023-02-14T07:06:07;4.50;99.90
18160;DHT22;9205;52.032;4.314;2023-02-14T07:08:39;4.60;99.90
18160;DHT22;9205;52.032;4.314;2023-02-14T07:11:13;4.50;99.90
18160;DHT22;9205;52.032;4.314;2023-02-14T07:13:47;4.30;99.90
18160;DHT22;9205;52.032;4.314;2023-02-14T07:16:21;4.50;99.90
18160;DHT22;9205;52.032;4.314;2023-02-14T07:18:54;4.20;99.90
18160;DHT22;9205;52.032;4.314;2023-02-14T07:21:27;4.40;99.90
18160;DHT22;9205;52.032;4.314;2023-02-14T07:23:59;4.20;99.90
18160;DHT22;9205;52.032;4.314;2023-02-14T07:26:28;4.60;99.90
18160;DHT22;9205;52.032;4.314;2023-02-14T07:29:02;4.60;99.90
18160;DHT22;9205;52.032;4.314;2023-02-14T07:31:35;4.30;99.90
18160;DHT22;9205;52.032;4.314;2023-02-14T07:34:05;4.40;99.90
18160;DHT22;9205;52.032;4.314;2023-02-14T07:36:37;4.60;99.90
18160;DHT22;9205;52.032;4.314;2023-02-14T07:39:07;4.40;99.90
18160;DHT22;9205;52.032;4.314;2023-02-14T07:41:37;4.60;99.90
18160;DHT22;9205;52.032;4.314;2023-02-14T07:44:18;4.70;99.90
18160;DHT22;9205;52.032;4.314;2023-02-14T07:46:47;4.50;99.90
18160;DHT22;9205;52.032;4.314;2023-02-14T07:49:18;4.80;99.90
18160;DHT22;9205;52.032;4.314;2023-02-14T07:51:45;4.60;99.90
18160;DHT22;9205;52.032;4.314;2023-02-14T07:54:13;4.70;99.90
18160;DHT22;9205;52.032;4.314;2023-02-14T07:56:43;4.70;99.90
18160;DHT22;9205;52.032;4.314;2023-02-14T07:59:11;4.90;99.90
18160;DHT22;9205;52.032;4.314;2023-02-14T08:01:38;5.00;99.90
18160;DHT22;9205;52.032;4.314;2023-02-14T08:04:07;4.80;99.90
18160;DHT22;9205;52.032;4.314;2023-02-14T08:06:38;5.10;99.90
18160;DHT22;9205;52.032;4.314;2023-02-14T08:09:08;4.90;99.90
18160;DHT22;9205;52.032;4.314;2023-02-14T08:11:36;4.80;99.90
18160;DHT22;9205;52.032;4.314;2023-02-14T08:14:22;5.10;99.90
18160;DHT22;9205;52.032;4.314;2023-02-14T08:16:53;5.10;99.90
18160;DHT22;9205;52.032;4.314;2023-02-14T08:19:33;5.20;99.90
18160;DHT22;9205;52.032;4.314;2023-02-14T08:22:24;5.20;99.90
18160;DHT22;9205;52.032;4.314;2023-02-14T08:25:07;5.30;99.90
18160;DHT22;9205;52.032;4.314;2023-02-14T08:27:57;5.40;99.90
18160;DHT22;9205;52.032;4.314;2023-02-14T08:30:56;5.60;99.90
18160;DHT22;9205;52.032;4.314;2023-02-14T08:33:50;5.40;99.90
18160;DHT22;9205;52.032;4.314;2023-02-14T08:36:48;5.70;99.90
18160;DHT22;9205;52.032;4.314;2023-02-14T08:39:27;5.80;99.90
18160;DHT22;9205;52.032;4.314;2023-02-14T08:42:47;5.80;99.90
18160;DHT22;9205;52.032;4.314;2023-02-14T08:45:37;5.50;99.90
18160;DHT22;9205;52.032;4.314;2023-02-14T08:48:12;5.90;99.90
18160;DHT22;9205;52.032;4.314;2023-02-14T08:50:54;5.80;99.90
18160;DHT22;9205;52.032;4.314;2023-02-14T08:53:49;6.00;99.90
18160;DHT22;9205;52.032;4.314;2023-02-14T08:56:40;6.00;99.90
18160;DHT22;9205;52.032;4.314;2023-02-14T08:59:29;6.10;99.90
18160;DHT22;9205;52.032;4.314;2023-02-14T09:02:35;6.20;99.90
18160;DHT22;9205;52.032;4.314;2023-02-14T09:05:29;5.90;99.90
18160;DHT22;9205;52.032;4.314;2023-02-14T09:08:05;6.20;99.90
18160;DHT22;9205;52.032;4.314;2023-02-14T09:10:57;6.10;99.90
18160;DHT22;9205;52.032;4.314;2023-02-14T09:14:17;6.20;99.90
18160;DHT22;9205;52.032;4.314;2023-02-14T09:17:18;6.40;99.90
18160;DHT22;9205;52.032;4.314;2023-02-14T09:20:04;6.40;99.90
18160;DHT22;9205;52.032;4.314;2023-02-14T09:22:35;6.60;99.90
18160;DHT22;9205;52.032;4.314;2023-02-14T09:25:06;6.80;99.90
18160;DHT22;9205;52.032;4.314;2023-02-14T09:27:41;6.70;99.90
18160;DHT22;9205;52.032;4.314;2023-02-14T09:30:23;7.00;99.90
18160;DHT22;9205;52.032;4.314;2023-02-14T09:32:56;6.80;99.90
18160;DHT22;9205;52.032;4.314;2023-02-14T09:35:29;6.90;99.90
18160;DHT22;9205;52.032;4.314;2023-02-14T09:38:04;7.20;99.90
18160;DHT22;9205;52.032;4.314;2023-02-14T09:40:47;7.10;99.90
18160;DHT22;9205;52.032;4.314;2023-02-14T09:43:22;7.10;99.90
18160;DHT22;9205;52.032;4.314;2023-02-14T09:46:00;7.30;99.90
18160;DHT22;9205;52.032;4.314;2023-02-14T09:48:31;7.20;99.90
18160;DHT22;9205;52.032;4.314;2023-02-14T09:51:10;7.40;99.90
18160;DHT22;9205;52.032;4.314;2023-02-14T09:53:48;7.60;99.90
18160;DHT22;9205;52.032;4.314;2023-02-14T09:56:22;7.60;99.90
18160;DHT22;9205;52.032;4.314;2023-02-14T09:59:05;7.50;99.90
18160;DHT22;9205;52.032;4.314;2023-02-14T10:01:44;7.60;99.90
18160;DHT22;9205;52.032;4.314;2023-02-14T10:04:27;7.60;99.90
18160;DHT22;9205;52.032;4.314;2023-02-14T10:07:16;7.80;99.90
18160;DHT22;9205;52.032;4.314;2023-02-14T10:10:01;7.90;99.90
18160;DHT22;9205;52.032;4.314;2023-02-14T10:12:36;7.80;99.90
18160;DHT22;9205;52.032;4.314;2023-02-14T10:15:18;8.00;99.90
18160;DHT22;9205;52.032;4.314;2023-02-14T10:17:54;8.10;99.90
18160;DHT22;9205;52.032;4.314;2023-02-14T10:20:33;8.10;99.90
18160;DHT22;9205;52.032;4.314;2023-02-14T10:23:25;8.10;99.90
18160;DHT22;9205;52.032;4.314;2023-02-14T10:26:04;8.30;99.90
18160;DHT22;9205;52.032;4.314;2023-02-14T10:28:43;8.10;99.90
18160;DHT22;9205;52.032;4.314;2023-02-14T10:31:23;8.40;99.90
18160;DHT22;9205;52.032;4.314;2023-02-14T10:33:56;8.40;99.90
18160;DHT22;9205;52.032;4.314;2023-02-14T10:36:49;8.50;99.90
18160;DHT22;9205;52.032;4.314;2023-02-14T10:39:43;8.70;95.40
18160;DHT22;9205;52.032;4.314;2023-02-14T10:42:31;8.60;99.90
18160;DHT22;9205;52.032;4.314;2023-02-14T10:45:15;8.80;50.20
18160;DHT22;9205;52.032;4.314;2023-02-14T10:48:00;8.90;41.70
18160;DHT22;9205;52.032;4.314;2023-02-14T10:50:49;9.00;41.70
18160;DHT22;9205;52.032;4.314;2023-02-14T10:53:32;8.90;62.90
18160;DHT22;9205;52.032;4.314;2023-02-14T10:56:25;9.20;40.50
18160;DHT22;9205;52.032;4.314;2023-02-14T10:59:14;9.20;1.00
18160;DHT22;9205;52.032;4.314;2023-02-14T11:01:58;9.30;1.00
18160;DHT22;9205;52.032;4.314;2023-02-14T11:04:53;9.40;1.00
18160;DHT22;9205;52.032;4.314;2023-02-14T11:07:45;9.40;1.00
18160;DHT22;9205;52.032;4.314;2023-02-14T11:10:34;9.50;1.00
18160;DHT22;9205;52.032;4.314;2023-02-14T11:13:26;9.60;1.00
18160;DHT22;9205;52.032;4.314;2023-02-14T11:16:07;9.60;1.00
18160;DHT22;9205;52.032;4.314;2023-02-14T11:18:41;9.70;1.00
18160;DHT22;9205;52.032;4.314;2023-02-14T11:21:18;9.60;1.00
18160;DHT22;9205;52.032;4.314;2023-02-14T11:23:54;9.70;1.00
18160;DHT22;9205;52.032;4.314;2023-02-14T11:26:29;9.80;1.00
18160;DHT22;9205;52.032;4.314;2023-02-14T11:29:12;9.90;1.00
18160;DHT22;9205;52.032;4.314;2023-02-14T11:31:51;9.90;1.00
18160;DHT22;9205;52.032;4.314;2023-02-14T11:34:32;10.10;1.00
18160;DHT22;9205;52.032;4.314;2023-02-14T11:37:25;10.10;1.00
18160;DHT22;9205;52.032;4.314;2023-02-14T11:40:00;10.10;1.00
18160;DHT22;9205;52.032;4.314;2023-02-14T11:42:36;10.20;1.00
18160;DHT22;9205;52.032;4.314;2023-02-14T11:45:28;10.30;1.00
18160;DHT22;9205;52.032;4.314;2023-02-14T11:48:18;10.40;1.00
18160;DHT22;9205;52.032;4.314;2023-02-14T11:50:56;10.40;1.00
18160;DHT22;9205;52.032;4.314;2023-02-14T11:53:44;10.50;1.00
18160;DHT22;9205;52.032;4.314;2023-02-14T11:56:19;10.90;1.00
18160;DHT22;9205;52.032;4.314;2023-02-14T11:58:56;10.90;1.00
18160;DHT22;9205;52.032;4.314;2023-02-14T12:01:32;10.90;1.00
18160;DHT22;9205;52.032;4.314;2023-02-14T12:04:14;11.10;1.00
18160;DHT22;9205;52.032;4.314;2023-02-14T12:06:53;11.10;99.90
18160;DHT22;9205;52.032;4.314;2023-02-14T12:09:35;11.20;99.90
18160;DHT22;9205;52.032;4.314;2023-02-14T12:12:17;11.40;97.80
18160;DHT22;9205;52.032;4.314;2023-02-14T12:14:52;11.50;3.20
18160;DHT22;9205;52.032;4.314;2023-02-14T12:17:55;11.60;1.00
18160;DHT22;9205;52.032;4.314;2023-02-14T12:20:40;11.70;1.00
18160;DHT22;9205;52.032;4.314;2023-02-14T12:23:24;11.90;1.00
18160;DHT22;9205;52.032;4.314;2023-02-14T12:26:11;11.90;99.90
18160;DHT22;9205;52.032;4.314;2023-02-14T12:29:11;11.90;99.90
18160;DHT22;9205;52.032;4.314;2023-02-14T12:31:48;11.90;1.00
18160;DHT22;9205;52.032;4.314;2023-02-14T12:34:21;11.90;26.20
18160;DHT22;9205;52.032;4.314;2023-02-14T12:37:10;11.90;1.00
18160;DHT22;9205;52.032;4.314;2023-02-14T12:40:07;11.90;1.00
18160;DHT22;9205;52.032;4.314;2023-02-14T12:43:11;11.90;1.00
18160;DHT22;9205;52.032;4.314;2023-02-14T12:46:25;12.00;1.00
18160;DHT22;9205;52.032;4.314;2023-02-14T12:49:28;11.90;99.90
18160;DHT22;9205;52.032;4.314;2023-02-14T12:52:26;12.10;99.90
18160;DHT22;9205;52.032;4.314;2023-02-14T12:55:34;12.00;99.90
18160;DHT22;9205;52.032;4.314;2023-02-14T12:58:26;12.10;1.00
18160;DHT22;9205;52.032;4.314;2023-02-14T13:01:32;12.10;1.00
18160;DHT22;9205;52.032;4.314;2023-02-14T13:04:58;12.30;1.00
18160;DHT22;9205;52.032;4.314;2023-02-14T13:07:52;12.50;1.00
18160;DHT22;9205;52.032;4.314;2023-02-14T13:10:38;12.60;1.00
18160;DHT22;9205;52.032;4.314;2023-02-14T13:13:26;12.60;99.90
18160;DHT22;9205;52.032;4.314;2023-02-14T13:16:10;12.60;1.00
18160;DHT22;9205;52.032;4.314;2023-02-14T13:18:55;12.50;1.00
18160;DHT22;9205;52.032;4.314;2023-02-14T13:21:33;12.50;1.00
18160;DHT22;9205;52.032;4.314;2023-02-14T13:24:14;12.40;1.00
18160;DHT22;9205;52.032;4.314;2023-02-14T13:26:50;12.30;1.00
18160;DHT22;9205;52.032;4.314;2023-02-14T13:29:24;12.40;1.00
18160;DHT22;9205;52.032;4.314;2023-02-14T13:31:57;12.40;1.00
18160;DHT22;9205;52.032;4.314;2023-02-14T13:34:34;12.40;1.00
18160;DHT22;9205;52.032;4.314;2023-02-14T13:37:08;12.40;1.00
18160;DHT22;9205;52.032;4.314;2023-02-14T13:39:41;12.40;1.00
18160;DHT22;9205;52.032;4.314;2023-02-14T13:42:52;12.40;1.00
18160;DHT22;9205;52.032;4.314;2023-02-14T13:45:58;12.30;1.00
18160;DHT22;9205;52.032;4.314;2023-02-14T13:48:28;12.50;1.00
18160;DHT22;9205;52.032;4.314;2023-02-14T13:51:00;12.50;1.00
18160;DHT22;9205;52.032;4.314;2023-02-14T13:53:35;12.50;1.00
18160;DHT22;9205;52.032;4.314;2023-02-14T13:56:30;12.50;1.00
18160;DHT22;9205;52.032;4.314;2023-02-14T13:59:03;12.70;1.00
18160;DHT22;9205;52.032;4.314;2023-02-14T14:01:37;12.70;1.00
18160;DHT22;9205;52.032;4.314;2023-02-14T14:04:35;12.60;1.00
18160;DHT22;9205;52.032;4.314;2023-02-14T14:07:22;12.60;99.90
18160;DHT22;9205;52.032;4.314;2023-02-14T14:09:58;12.60;99.90
18160;DHT22;9205;52.032;4.314;2023-02-14T14:12:45;12.60;42.70
18160;DHT22;9205;52.032;4.314;2023-02-14T14:15:19;12.50;1.00
18160;DHT22;9205;52.032;4.314;2023-02-14T14:21:20;12.30;1.00
18160;DHT22;9205;52.032;4.314;2023-02-14T14:24:19;12.40;1.00
18160;DHT22;9205;52.032;4.314;2023-02-14T14:26:56;12.30;1.00
18160;DHT22;9205;52.032;4.314;2023-02-14T14:29:30;12.40;1.00
18160;DHT22;9205;52.032;4.314;2023-02-14T14:32:07;12.30;1.00
18160;DHT22;9205;52.032;4.314;2023-02-14T14:34:46;12.30;1.00
18160;DHT22;9205;52.032;4.314;2023-02-14T14:37:18;12.30;1.00
18160;DHT22;9205;52.032;4.314;2023-02-14T14:39:52;12.30;50.30
18160;DHT22;9205;52.032;4.314;2023-02-14T14:42:23;12.20;13.10
18160;DHT22;9205;52.032;4.314;2023-02-14T14:44:54;12.20;55.30
18160;DHT22;9205;52.032;4.314;2023-02-14T14:47:32;12.20;1.00
18160;DHT22;9205;52.032;4.314;2023-02-14T14:52:50;12.10;99.90
18160;DHT22;9205;52.032;4.314;2023-02-14T14:55:29;12.20;99.90
18160;DHT22;9205;52.032;4.314;2023-02-14T14:58:07;12.20;1.00
18160;DHT22;9205;52.032;4.314;2023-02-14T15:01:03;12.10;1.00
18160;DHT22;9205;52.032;4.314;2023-02-14T15:03:33;12.00;1.00
18160;DHT22;9205;52.032;4.314;2023-02-14T15:06:08;11.90;64.20
18160;DHT22;9205;52.032;4.314;2023-02-14T15:08:47;11.90;99.90
18160;DHT22;9205;52.032;4.314;2023-02-14T15:11:21;11.90;99.90
18160;DHT22;9205;52.032;4.314;2023-02-14T15:14:14;11.90;99.90
18160;DHT22;9205;52.032;4.314;2023-02-14T15:16:48;11.90;1.00
18160;DHT22;9205;52.032;4.314;2023-02-14T15:19:21;11.80;1.00
18160;DHT22;9205;52.032;4.314;2023-02-14T15:22:02;11.70;1.00
18160;DHT22;9205;52.032;4.314;2023-02-14T15:24:54;11.70;1.00
18160;DHT22;9205;52.032;4.314;2023-02-14T15:27:39;11.70;1.00
18160;DHT22;9205;52.032;4.314;2023-02-14T15:30:21;11.70;1.00
18160;DHT22;9205;52.032;4.314;2023-02-14T15:37:01;11.60;99.90
18160;DHT22;9205;52.032;4.314;2023-02-14T15:44:33;11.50;1.00
18160;DHT22;9205;52.032;4.314;2023-02-14T15:47:04;11.50;1.00
18160;DHT22;9205;52.032;4.314;2023-02-14T15:49:37;11.40;1.00
18160;DHT22;9205;52.032;4.314;2023-02-14T15:52:16;11.40;1.00
18160;DHT22;9205;52.032;4.314;2023-02-14T15:54:47;11.40;1.00
18160;DHT22;9205;52.032;4.314;2023-02-14T15:57:21;11.40;1.00
18160;DHT22;9205;52.032;4.314;2023-02-14T15:59:52;11.30;1.00
18160;DHT22;9205;52.032;4.314;2023-02-14T16:02:31;11.30;1.00
18160;DHT22;9205;52.032;4.314;2023-02-14T16:05:04;11.20;1.00
18160;DHT22;9205;52.032;4.314;2023-02-14T16:07:36;11.20;1.00
18160;DHT22;9205;52.032;4.314;2023-02-14T16:10:22;11.20;99.90
18160;DHT22;9205;52.032;4.314;2023-02-14T16:12:56;11.10;99.90
18160;DHT22;9205;52.032;4.314;2023-02-14T16:15:29;11.10;99.90
18160;DHT22;9205;52.032;4.314;2023-02-14T16:18:16;11.10;17.40
18160;DHT22;9205;52.032;4.314;2023-02-14T16:20:45;11.00;1.00
18160;DHT22;9205;52.032;4.314;2023-02-14T16:23:20;11.00;99.90
18160;DHT22;9205;52.032;4.314;2023-02-14T16:25:52;10.90;99.90
18160;DHT22;9205;52.032;4.314;2023-02-14T16:28:27;10.80;99.90
18160;DHT22;9205;52.032;4.314;2023-02-14T16:31:04;10.70;1.00
18160;DHT22;9205;52.032;4.314;2023-02-14T16:33:39;10.70;1.00
18160;DHT22;9205;52.032;4.314;2023-02-14T16:36:28;10.70;1.00
18160;DHT22;9205;52.032;4.314;2023-02-14T16:39:02;10.60;1.00
18160;DHT22;9205;52.032;4.314;2023-02-14T16:41:33;10.60;1.00
18160;DHT22;9205;52.032;4.314;2023-02-14T16:47:55;10.40;1.00
18160;DHT22;9205;52.032;4.314;2023-02-14T16:50:26;10.30;1.00
18160;DHT22;9205;52.032;4.314;2023-02-14T16:52:55;10.20;1.00
18160;DHT22;9205;52.032;4.314;2023-02-14T16:55:25;10.20;1.00
18160;DHT22;9205;52.032;4.314;2023-02-14T16:58:04;10.00;1.00
18160;DHT22;9205;52.032;4.314;2023-02-14T17:00:34;10.10;1.00
18160;DHT22;9205;52.032;4.314;2023-02-14T17:03:05;10.00;1.00
18160;DHT22;9205;52.032;4.314;2023-02-14T17:05:36;9.90;76.90
18160;DHT22;9205;52.032;4.314;2023-02-14T17:08:07;9.80;99.90
18160;DHT22;9205;52.032;4.314;2023-02-14T17:10:39;9.70;99.90
18160;DHT22;9205;52.032;4.314;2023-02-14T17:13:10;9.70;99.90
18160;DHT22;9205;52.032;4.314;2023-02-14T17:15:50;9.60;99.90
18160;DHT22;9205;52.032;4.314;2023-02-14T17:18:28;9.50;1.00
18160;DHT22;9205;52.032;4.314;2023-02-14T17:21:05;9.40;1.00
18160;DHT22;9205;52.032;4.314;2023-02-14T17:24:05;9.40;1.00
18160;DHT22;9205;52.032;4.314;2023-02-14T17:26:41;9.40;1.00
18160;DHT22;9205;52.032;4.314;2023-02-14T17:29:28;9.20;1.00
18160;DHT22;9205;52.032;4.314;2023-02-14T17:31:59;9.20;1.00
18160;DHT22;9205;52.032;4.314;2023-02-14T17:34:47;9.10;1.00
18160;DHT22;9205;52.032;4.314;2023-02-14T17:37:21;9.00;1.00
18160;DHT22;9205;52.032;4.314;2023-02-14T17:39:54;9.00;1.00
18160;DHT22;9205;52.032;4.314;2023-02-14T17:42:24;8.90;1.00
18160;DHT22;9205;52.032;4.314;2023-02-14T17:44:52;8.90;1.00